sensor_id;sensor_type;location;lat;lon;timestamp;P1;durP1;ratioP1;P2;durP2;ratioP2
37877;SDS011;23715;53.652;8.516;2023-05-07T00:03:12;54.10;;;50.28;;
37877;SDS011;23715;53.652;8.516;2023-05-07T00:08:12;57.27;;;53.38;;
37877;SDS011;23715;53.652;8.516;2023-05-07T00:13:13;57.45;;;53.25;;
37877;SDS011;23715;53.652;8.516;2023-05-07T00:18:13;57.93;;;54.00;;
37877;SDS011;23715;53.652;8.516;2023-05-07T00:23:14;52.75;;;49.25;;
37877;SDS011;23715;53.652;8.516;2023-05-07T00:28:14;56.80;;;52.73;;
37877;SDS011;23715;53.652;8.516;2023-05-07T00:33:15;58.73;;;54.63;;
37877;SDS011;23715;53.652;8.516;2023-05-07T00:38:15;57.13;;;53.05;;
37877;SDS011;23715;53.652;8.516;2023-05-07T00:48:15;54.80;;;50.73;;
37877;SDS011;23715;53.652;8.516;2023-05-07T00:53:16;53.95;;;50.15;;
37877;SDS011;23715;53.652;8.516;2023-05-07T00:58:16;53.75;;;50.05;;
37877;SDS011;23715;53.652;8.516;2023-05-07T01:03:16;56.60;;;52.78;;
37877;SDS011;23715;53.652;8.516;2023-05-07T01:08:17;50.63;;;47.15;;
37877;SDS011;23715;53.652;8.516;2023-05-07T01:13:17;54.55;;;50.98;;
37877;SDS011;23715;53.652;8.516;2023-05-07T01:18:19;56.95;;;53.17;;
37877;SDS011;23715;53.652;8.516;2023-05-07T01:23:20;59.38;;;55.48;;
37877;SDS011;23715;53.652;8.516;2023-05-07T01:28:20;58.00;;;53.90;;
37877;SDS011;23715;53.652;8.516;2023-05-07T01:33:22;55.50;;;51.70;;
37877;SDS011;23715;53.652;8.516;2023-05-07T01:38:23;57.85;;;53.63;;
37877;SDS011;23715;53.652;8.516;2023-05-07T01:43:23;55.63;;;51.80;;
37877;SDS011;23715;53.652;8.516;2023-05-07T01:53:26;54.38;;;50.48;;
37877;SDS011;23715;53.652;8.516;2023-05-07T01:58:27;55.92;;;52.00;;
37877;SDS011;23715;53.652;8.516;2023-05-07T02:03:27;56.02;;;52.33;;
37877;SDS011;23715;53.652;8.516;2023-05-07T02:08:29;59.75;;;55.20;;
37877;SDS011;23715;53.652;8.516;2023-05-07T02:23:31;54.53;;;50.67;;
37877;SDS011;23715;53.652;8.516;2023-05-07T02:28:33;59.05;;;54.98;;
37877;SDS011;23715;53.652;8.516;2023-05-07T02:33:36;57.83;;;53.63;;
37877;SDS011;23715;53.652;8.516;2023-05-07T02:38:38;57.05;;;53.05;;
37877;SDS011;23715;53.652;8.516;2023-05-07T02:43:39;58.38;;;54.23;;
37877;SDS011;23715;53.652;8.516;2023-05-07T02:48:39;57.73;;;53.52;;
37877;SDS011;23715;53.652;8.516;2023-05-07T02:53:39;56.58;;;52.48;;
37877;SDS011;23715;53.652;8.516;2023-05-07T02:58:40;56.70;;;52.53;;
37877;SDS011;23715;53.652;8.516;2023-05-07T03:03:44;57.05;;;53.15;;
37877;SDS011;23715;53.652;8.516;2023-05-07T03:08:44;53.10;;;49.30;;
37877;SDS011;23715;53.652;8.516;2023-05-07T03:13:44;57.58;;;53.58;;
37877;SDS011;23715;53.652;8.516;2023-05-07T03:18:45;54.08;;;50.38;;
37877;SDS011;23715;53.652;8.516;2023-05-07T03:23:45;57.30;;;53.50;;
37877;SDS011;23715;53.652;8.516;2023-05-07T03:28:45;55.83;;;51.95;;
37877;SDS011;23715;53.652;8.516;2023-05-07T03:33:54;54.77;;;51.08;;
37877;SDS011;23715;53.652;8.516;2023-05-07T03:38:55;56.85;;;52.75;;
37877;SDS011;23715;53.652;8.516;2023-05-07T03:43:57;54.83;;;51.25;;
37877;SDS011;23715;53.652;8.516;2023-05-07T03:53:58;49.90;;;46.60;;
37877;SDS011;23715;53.652;8.516;2023-05-07T04:04:51;52.33;;;48.48;;
37877;SDS011;23715;53.652;8.516;2023-05-07T04:09:52;50.35;;;47.05;;
37877;SDS011;23715;53.652;8.516;2023-05-07T04:14:53;54.63;;;51.02;;
37877;SDS011;23715;53.652;8.516;2023-05-07T04:19:55;49.90;;;46.60;;
37877;SDS011;23715;53.652;8.516;2023-05-07T04:24:56;50.65;;;47.35;;
37877;SDS011;23715;53.652;8.516;2023-05-07T04:29:57;50.28;;;47.08;;
37877;SDS011;23715;53.652;8.516;2023-05-07T04:34:59;52.67;;;49.20;;
37877;SDS011;23715;53.652;8.516;2023-05-07T04:40:00;50.48;;;47.20;;
37877;SDS011;23715;53.652;8.516;2023-05-07T04:45:01;51.65;;;48.23;;
37877;SDS011;23715;53.652;8.516;2023-05-07T04:50:04;50.98;;;47.75;;
37877;SDS011;23715;53.652;8.516;2023-05-07T04:55:06;49.98;;;46.68;;
37877;SDS011;23715;53.652;8.516;2023-05-07T05:00:09;52.43;;;48.87;;
37877;SDS011;23715;53.652;8.516;2023-05-07T05:05:12;53.85;;;50.25;;
37877;SDS011;23715;53.652;8.516;2023-05-07T05:10:13;50.12;;;46.83;;
37877;SDS011;23715;53.652;8.516;2023-05-07T05:15:15;52.45;;;49.18;;
37877;SDS011;23715;53.652;8.516;2023-05-07T05:20:15;49.00;;;45.83;;
37877;SDS011;23715;53.652;8.516;2023-05-07T05:25:16;48.58;;;45.38;;
37877;SDS011;23715;53.652;8.516;2023-05-07T05:30:17;50.88;;;47.38;;
37877;SDS011;23715;53.652;8.516;2023-05-07T05:35:18;49.98;;;46.55;;
37877;SDS011;23715;53.652;8.516;2023-05-07T05:40:18;48.63;;;45.53;;
37877;SDS011;23715;53.652;8.516;2023-05-07T05:45:19;49.98;;;46.68;;
37877;SDS011;23715;53.652;8.516;2023-05-07T05:50:22;54.35;;;50.85;;
37877;SDS011;23715;53.652;8.516;2023-05-07T05:55:23;51.10;;;47.80;;
37877;SDS011;23715;53.652;8.516;2023-05-07T06:00:23;48.97;;;45.73;;
37877;SDS011;23715;53.652;8.516;2023-05-07T06:05:29;47.25;;;44.25;;
37877;SDS011;23715;53.652;8.516;2023-05-07T06:10:30;50.30;;;47.10;;
37877;SDS011;23715;53.652;8.516;2023-05-07T06:15:31;48.68;;;45.48;;
37877;SDS011;23715;53.652;8.516;2023-05-07T06:20:33;51.05;;;47.65;;
37877;SDS011;23715;53.652;8.516;2023-05-07T06:25:35;48.52;;;45.33;;
37877;SDS011;23715;53.652;8.516;2023-05-07T06:30:37;49.05;;;45.85;;
37877;SDS011;23715;53.652;8.516;2023-05-07T06:35:38;51.08;;;47.88;;
37877;SDS011;23715;53.652;8.516;2023-05-07T06:40:39;52.43;;;49.03;;
37877;SDS011;23715;53.652;8.516;2023-05-07T06:45:39;55.52;;;51.50;;
37877;SDS011;23715;53.652;8.516;2023-05-07T06:50:41;54.35;;;50.63;;
37877;SDS011;23715;53.652;8.516;2023-05-07T06:55:42;54.03;;;50.58;;
37877;SDS011;23715;53.652;8.516;2023-05-07T07:00:45;53.70;;;50.08;;
37877;SDS011;23715;53.652;8.516;2023-05-07T07:05:45;54.75;;;51.20;;
37877;SDS011;23715;53.652;8.516;2023-05-07T07:10:45;49.90;;;46.50;;
37877;SDS011;23715;53.652;8.516;2023-05-07T07:20:46;51.65;;;48.15;;
37877;SDS011;23715;53.652;8.516;2023-05-07T07:25:46;50.70;;;46.88;;
37877;SDS011;23715;53.652;8.516;2023-05-07T07:30:47;53.10;;;49.65;;
37877;SDS011;23715;53.652;8.516;2023-05-07T07:35:49;50.73;;;47.13;;
37877;SDS011;23715;53.652;8.516;2023-05-07T07:40:49;54.67;;;50.88;;
37877;SDS011;23715;53.652;8.516;2023-05-07T07:45:49;52.23;;;48.80;;
37877;SDS011;23715;53.652;8.516;2023-05-07T07:50:51;54.47;;;50.77;;
37877;SDS011;23715;53.652;8.516;2023-05-07T08:00:53;51.47;;;47.73;;
37877;SDS011;23715;53.652;8.516;2023-05-07T08:05:55;50.28;;;46.77;;
37877;SDS011;23715;53.652;8.516;2023-05-07T08:10:57;52.10;;;48.60;;
37877;SDS011;23715;53.652;8.516;2023-05-07T08:16:05;53.17;;;49.67;;
37877;SDS011;23715;53.652;8.516;2023-05-07T08:21:03;54.98;;;51.37;;
37877;SDS011;23715;53.652;8.516;2023-05-07T08:26:04;55.67;;;51.85;;
37877;SDS011;23715;53.652;8.516;2023-05-07T08:31:08;52.47;;;48.97;;
37877;SDS011;23715;53.652;8.516;2023-05-07T08:36:10;51.95;;;48.35;;
37877;SDS011;23715;53.652;8.516;2023-05-07T08:41:11;50.00;;;46.70;;
37877;SDS011;23715;53.652;8.516;2023-05-07T08:46:13;54.42;;;50.83;;
37877;SDS011;23715;53.652;8.516;2023-05-07T08:51:22;56.40;;;52.65;;
37877;SDS011;23715;53.652;8.516;2023-05-07T08:56:23;53.08;;;49.48;;
37877;SDS011;23715;53.652;8.516;2023-05-07T09:01:24;54.95;;;51.25;;
37877;SDS011;23715;53.652;8.516;2023-05-07T09:06:26;53.30;;;49.80;;
37877;SDS011;23715;53.652;8.516;2023-05-07T09:11:26;54.67;;;50.98;;
37877;SDS011;23715;53.652;8.516;2023-05-07T09:16:29;52.17;;;48.48;;
37877;SDS011;23715;53.652;8.516;2023-05-07T09:21:30;52.43;;;48.95;;
37877;SDS011;23715;53.652;8.516;2023-05-07T09:26:31;49.75;;;46.45;;
37877;SDS011;23715;53.652;8.516;2023-05-07T09:31:36;51.83;;;48.25;;
37877;SDS011;23715;53.652;8.516;2023-05-07T09:36:40;50.55;;;47.13;;
37877;SDS011;23715;53.652;8.516;2023-05-07T09:41:44;56.92;;;51.92;;
37877;SDS011;23715;53.652;8.516;2023-05-07T09:46:53;51.88;;;48.48;;
37877;SDS011;23715;53.652;8.516;2023-05-07T09:52:06;53.28;;;49.65;;
37877;SDS011;23715;53.652;8.516;2023-05-07T09:57:11;52.75;;;49.25;;
37877;SDS011;23715;53.652;8.516;2023-05-07T10:02:13;52.35;;;48.90;;
37877;SDS011;23715;53.652;8.516;2023-05-07T10:07:16;52.38;;;48.70;;
37877;SDS011;23715;53.652;8.516;2023-05-07T10:12:18;49.18;;;46.05;;
37877;SDS011;23715;53.652;8.516;2023-05-07T10:17:19;52.03;;;48.73;;
37877;SDS011;23715;53.652;8.516;2023-05-07T10:22:21;51.60;;;48.08;;
37877;SDS011;23715;53.652;8.516;2023-05-07T10:27:25;53.50;;;49.88;;
37877;SDS011;23715;53.652;8.516;2023-05-07T10:32:39;52.78;;;49.27;;
37877;SDS011;23715;53.652;8.516;2023-05-07T10:37:46;52.70;;;49.42;;
37877;SDS011;23715;53.652;8.516;2023-05-07T10:42:58;50.95;;;47.70;;
37877;SDS011;23715;53.652;8.516;2023-05-07T10:58:24;53.08;;;49.73;;
37877;SDS011;23715;53.652;8.516;2023-05-07T11:03:27;53.00;;;49.60;;
37877;SDS011;23715;53.652;8.516;2023-05-07T11:09:13;51.83;;;48.52;;
37877;SDS011;23715;53.652;8.516;2023-05-07T11:13:53;50.15;;;46.80;;
37877;SDS011;23715;53.652;8.516;2023-05-07T11:18:58;51.85;;;48.55;;
37877;SDS011;23715;53.652;8.516;2023-05-07T11:24:02;51.85;;;48.42;;
37877;SDS011;23715;53.652;8.516;2023-05-07T11:29:04;49.80;;;46.70;;
37877;SDS011;23715;53.652;8.516;2023-05-07T11:34:08;50.55;;;47.25;;
37877;SDS011;23715;53.652;8.516;2023-05-07T11:39:28;51.70;;;48.30;;
37877;SDS011;23715;53.652;8.516;2023-05-07T11:44:46;49.20;;;46.00;;
37877;SDS011;23715;53.652;8.516;2023-05-07T11:49:55;48.65;;;45.65;;
37877;SDS011;23715;53.652;8.516;2023-05-07T11:55:46;54.88;;;51.58;;
37877;SDS011;23715;53.652;8.516;2023-05-07T12:00:50;51.53;;;48.20;;
37877;SDS011;23715;53.652;8.516;2023-05-07T12:05:51;53.08;;;49.88;;
37877;SDS011;23715;53.652;8.516;2023-05-07T12:10:51;53.78;;;50.48;;
37877;SDS011;23715;53.652;8.516;2023-05-07T12:15:55;52.62;;;49.40;;
37877;SDS011;23715;53.652;8.516;2023-05-07T12:20:56;49.75;;;46.80;;
37877;SDS011;23715;53.652;8.516;2023-05-07T12:25:57;46.63;;;43.85;;
37877;SDS011;23715;53.652;8.516;2023-05-07T12:30:59;47.05;;;43.85;;
37877;SDS011;23715;53.652;8.516;2023-05-07T12:36:02;47.43;;;44.42;;
37877;SDS011;23715;53.652;8.516;2023-05-07T12:41:04;45.85;;;43.05;;
37877;SDS011;23715;53.652;8.516;2023-05-07T12:46:06;49.27;;;46.33;;
37877;SDS011;23715;53.652;8.516;2023-05-07T12:51:07;44.23;;;41.53;;
37877;SDS011;23715;53.652;8.516;2023-05-07T12:56:09;47.23;;;44.38;;
37877;SDS011;23715;53.652;8.516;2023-05-07T13:01:09;44.77;;;42.03;;
37877;SDS011;23715;53.652;8.516;2023-05-07T13:06:11;44.50;;;41.80;;
37877;SDS011;23715;53.652;8.516;2023-05-07T13:11:12;45.23;;;42.53;;
37877;SDS011;23715;53.652;8.516;2023-05-07T13:21:10;50.33;;;47.17;;
37877;SDS011;23715;53.652;8.516;2023-05-07T13:26:11;46.40;;;43.68;;
37877;SDS011;23715;53.652;8.516;2023-05-07T13:31:11;46.75;;;43.95;;
37877;SDS011;23715;53.652;8.516;2023-05-07T13:36:12;52.67;;;49.35;;
37877;SDS011;23715;53.652;8.516;2023-05-07T13:46:12;48.87;;;45.88;;
37877;SDS011;23715;53.652;8.516;2023-05-07T13:51:12;48.50;;;45.65;;
37877;SDS011;23715;53.652;8.516;2023-05-07T13:56:16;50.70;;;46.85;;
37877;SDS011;23715;53.652;8.516;2023-05-07T14:01:36;48.37;;;45.27;;
37877;SDS011;23715;53.652;8.516;2023-05-07T14:07:17;47.88;;;44.40;;
37877;SDS011;23715;53.652;8.516;2023-05-07T14:28:11;45.40;;;42.43;;
37877;SDS011;23715;53.652;8.516;2023-05-07T14:33:12;41.45;;;38.83;;
37877;SDS011;23715;53.652;8.516;2023-05-07T14:43:11;41.13;;;38.53;;
37877;SDS011;23715;53.652;8.516;2023-05-07T14:48:12;40.48;;;38.05;;
37877;SDS011;23715;53.652;8.516;2023-05-07T14:53:13;49.70;;;46.40;;
37877;SDS011;23715;53.652;8.516;2023-05-07T14:58:13;40.75;;;38.20;;
37877;SDS011;23715;53.652;8.516;2023-05-07T15:03:14;42.75;;;40.23;;
37877;SDS011;23715;53.652;8.516;2023-05-07T15:08:15;37.08;;;34.85;;
37877;SDS011;23715;53.652;8.516;2023-05-07T15:13:15;35.63;;;33.30;;
37877;SDS011;23715;53.652;8.516;2023-05-07T15:18:15;35.95;;;33.80;;
37877;SDS011;23715;53.652;8.516;2023-05-07T15:23:16;36.83;;;34.63;;
37877;SDS011;23715;53.652;8.516;2023-05-07T15:28:18;37.75;;;35.25;;
37877;SDS011;23715;53.652;8.516;2023-05-07T15:33:19;32.28;;;30.15;;
37877;SDS011;23715;53.652;8.516;2023-05-07T15:38:19;39.80;;;37.15;;
37877;SDS011;23715;53.652;8.516;2023-05-07T15:48:19;34.48;;;32.42;;
37877;SDS011;23715;53.652;8.516;2023-05-07T15:53:20;37.30;;;34.83;;
37877;SDS011;23715;53.652;8.516;2023-05-07T16:03:27;37.58;;;34.43;;
37877;SDS011;23715;53.652;8.516;2023-05-07T16:13:30;30.50;;;28.50;;
37877;SDS011;23715;53.652;8.516;2023-05-07T16:18:31;36.35;;;33.95;;
37877;SDS011;23715;53.652;8.516;2023-05-07T16:23:43;28.07;;;26.27;;
37877;SDS011;23715;53.652;8.516;2023-05-07T16:29:08;27.45;;;25.80;;
37877;SDS011;23715;53.652;8.516;2023-05-07T16:34:34;26.12;;;24.47;;
37877;SDS011;23715;53.652;8.516;2023-05-07T16:40:07;29.45;;;27.48;;
37877;SDS011;23715;53.652;8.516;2023-05-07T16:45:08;28.07;;;26.35;;
37877;SDS011;23715;53.652;8.516;2023-05-07T16:50:09;26.65;;;24.95;;
37877;SDS011;23715;53.652;8.516;2023-05-07T16:55:09;26.90;;;25.10;;
37877;SDS011;23715;53.652;8.516;2023-05-07T17:00:10;29.15;;;27.37;;
37877;SDS011;23715;53.652;8.516;2023-05-07T17:05:19;27.42;;;25.35;;
37877;SDS011;23715;53.652;8.516;2023-05-07T17:15:28;27.10;;;25.40;;
37877;SDS011;23715;53.652;8.516;2023-05-07T17:25:40;29.57;;;27.63;;
37877;SDS011;23715;53.652;8.516;2023-05-07T17:36:09;29.37;;;27.35;;
37877;SDS011;23715;53.652;8.516;2023-05-07T17:41:55;27.42;;;25.72;;
37877;SDS011;23715;53.652;8.516;2023-05-07T17:52:53;27.00;;;25.30;;
37877;SDS011;23715;53.652;8.516;2023-05-07T17:57:54;27.77;;;25.97;;
37877;SDS011;23715;53.652;8.516;2023-05-07T18:02:54;23.23;;;21.73;;
37877;SDS011;23715;53.652;8.516;2023-05-07T18:07:56;24.70;;;22.90;;
37877;SDS011;23715;53.652;8.516;2023-05-07T18:12:57;24.77;;;23.10;;
37877;SDS011;23715;53.652;8.516;2023-05-07T18:17:57;21.75;;;20.35;;
37877;SDS011;23715;53.652;8.516;2023-05-07T18:22:58;22.20;;;20.83;;
37877;SDS011;23715;53.652;8.516;2023-05-07T18:32:57;21.12;;;19.73;;
37877;SDS011;23715;53.652;8.516;2023-05-07T18:43:10;21.70;;;20.35;;
37877;SDS011;23715;53.652;8.516;2023-05-07T18:54:03;21.27;;;19.85;;
37877;SDS011;23715;53.652;8.516;2023-05-07T19:04:23;22.87;;;21.52;;
37877;SDS011;23715;53.652;8.516;2023-05-07T19:24:55;23.55;;;22.15;;
37877;SDS011;23715;53.652;8.516;2023-05-07T19:29:56;21.17;;;19.82;;
37877;SDS011;23715;53.652;8.516;2023-05-07T19:34:59;20.37;;;18.98;;
37877;SDS011;23715;53.652;8.516;2023-05-07T19:45:03;20.80;;;19.48;;
37877;SDS011;23715;53.652;8.516;2023-05-07T20:00:26;21.80;;;20.25;;
37877;SDS011;23715;53.652;8.516;2023-05-07T20:05:28;21.62;;;20.05;;
37877;SDS011;23715;53.652;8.516;2023-05-07T20:15:37;20.37;;;19.02;;
37877;SDS011;23715;53.652;8.516;2023-05-07T20:20:38;20.10;;;18.87;;
37877;SDS011;23715;53.652;8.516;2023-05-07T20:25:40;22.25;;;20.25;;
37877;SDS011;23715;53.652;8.516;2023-05-07T20:30:40;19.42;;;18.07;;
37877;SDS011;23715;53.652;8.516;2023-05-07T20:35:41;20.40;;;19.20;;
37877;SDS011;23715;53.652;8.516;2023-05-07T20:40:41;20.37;;;19.07;;
37877;SDS011;23715;53.652;8.516;2023-05-07T20:45:41;21.77;;;20.48;;
37877;SDS011;23715;53.652;8.516;2023-05-07T20:50:41;22.02;;;20.72;;
37877;SDS011;23715;53.652;8.516;2023-05-07T20:55:42;21.13;;;19.93;;
37877;SDS011;23715;53.652;8.516;2023-05-07T21:00:44;21.07;;;19.85;;
37877;SDS011;23715;53.652;8.516;2023-05-07T21:05:51;21.33;;;20.02;;
37877;SDS011;23715;53.652;8.516;2023-05-07T21:10:53;20.77;;;19.57;;
37877;SDS011;23715;53.652;8.516;2023-05-07T21:15:54;22.77;;;21.37;;
37877;SDS011;23715;53.652;8.516;2023-05-07T21:20:55;21.93;;;20.72;;
37877;SDS011;23715;53.652;8.516;2023-05-07T21:30:54;23.18;;;21.62;;
37877;SDS011;23715;53.652;8.516;2023-05-07T21:35:55;23.22;;;21.93;;
37877;SDS011;23715;53.652;8.516;2023-05-07T21:40:55;23.07;;;21.73;;
37877;SDS011;23715;53.652;8.516;2023-05-07T21:45:56;21.65;;;20.35;;
37877;SDS011;23715;53.652;8.516;2023-05-07T21:51:08;22.43;;;20.93;;
37877;SDS011;23715;53.652;8.516;2023-05-07T21:56:06;23.67;;;22.23;;
37877;SDS011;23715;53.652;8.516;2023-05-07T22:06:10;23.80;;;22.07;;
37877;SDS011;23715;53.652;8.516;2023-05-07T22:11:10;22.60;;;21.20;;
37877;SDS011;23715;53.652;8.516;2023-05-07T22:16:11;25.00;;;23.45;;
37877;SDS011;23715;53.652;8.516;2023-05-07T22:21:11;25.25;;;23.75;;
37877;SDS011;23715;53.652;8.516;2023-05-07T22:26:11;25.25;;;23.75;;
37877;SDS011;23715;53.652;8.516;2023-05-07T22:31:12;23.42;;;21.75;;
37877;SDS011;23715;53.652;8.516;2023-05-07T22:36:12;24.65;;;22.82;;
37877;SDS011;23715;53.652;8.516;2023-05-07T22:41:12;23.18;;;21.68;;
37877;SDS011;23715;53.652;8.516;2023-05-07T22:46:13;21.55;;;20.12;;
37877;SDS011;23715;53.652;8.516;2023-05-07T22:51:13;22.85;;;21.27;;
37877;SDS011;23715;53.652;8.516;2023-05-07T22:56:13;24.63;;;23.02;;
37877;SDS011;23715;53.652;8.516;2023-05-07T23:01:14;21.68;;;20.37;;
37877;SDS011;23715;53.652;8.516;2023-05-07T23:06:16;22.80;;;21.42;;
37877;SDS011;23715;53.652;8.516;2023-05-07T23:11:16;20.85;;;19.65;;
37877;SDS011;23715;53.652;8.516;2023-05-07T23:16:17;20.60;;;19.30;;
37877;SDS011;23715;53.652;8.516;2023-05-07T23:26:18;23.57;;;22.00;;
37877;SDS011;23715;53.652;8.516;2023-05-07T23:31:18;25.80;;;24.23;;
37877;SDS011;23715;53.652;8.516;2023-05-07T23:36:19;26.02;;;24.45;;
37877;SDS011;23715;53.652;8.516;2023-05-07T23:41:19;26.12;;;24.52;;
37877;SDS011;23715;53.652;8.516;2023-05-07T23:46:19;28.05;;;26.10;;
37877;SDS011;23715;53.652;8.516;2023-05-07T23:51:20;29.85;;;27.75;;
37877;SDS011;23715;53.652;8.516;2023-05-07T23:56:20;29.67;;;27.77;;
